createdAt,value
2019-05-21T00:02:19.725Z,12.30
2019-05-21T00:04:50.569Z,12.30
2019-05-21T00:07:21.382Z,12.20
2019-05-21T00:09:50.435Z,12.20
2019-05-21T00:12:20.673Z,12.20
2019-05-21T00:14:51.015Z,12.20
2019-05-21T00:17:20.201Z,12.20
2019-05-21T00:19:50.602Z,12.10
2019-05-21T00:22:19.911Z,12.10
2019-05-21T00:24:49.884Z,12.10
2019-05-21T00:27:20.461Z,12.10
2019-05-21T00:30:25.743Z,12.00
2019-05-21T00:33:31.054Z,12.00
2019-05-21T00:36:37.546Z,12.00
2019-05-21T00:39:42.656Z,12.00
2019-05-21T00:42:10.193Z,12.00
2019-05-21T00:44:41.827Z,12.00
2019-05-21T00:47:12.539Z,12.00
2019-05-21T00:49:41.855Z,12.00
2019-05-21T00:52:14.193Z,12.00
2019-05-21T00:54:43.612Z,12.00
2019-05-21T00:57:12.878Z,12.00
2019-05-21T00:59:42.693Z,12.00
2019-05-21T01:02:12.064Z,12.00
2019-05-21T01:05:00.088Z,12.00
2019-05-21T01:07:20.942Z,12.00
2019-05-21T01:09:50.130Z,12.00
2019-05-21T01:12:21.862Z,11.90
2019-05-21T01:14:53.835Z,11.90
2019-05-21T01:17:22.906Z,11.90
2019-05-21T01:19:52.030Z,11.90
2019-05-21T01:22:20.980Z,11.90
2019-05-21T01:24:50.313Z,11.90
2019-05-21T01:27:19.879Z,11.90
2019-05-21T01:29:48.905Z,11.90
2019-05-21T01:32:18.093Z,11.90
2019-05-21T01:34:47.130Z,11.90
2019-05-21T01:37:20.297Z,11.90
2019-05-21T01:39:50.929Z,11.90
2019-05-21T01:42:20.939Z,11.90
2019-05-21T01:44:49.906Z,11.90
2019-05-21T01:47:23.261Z,11.80
2019-05-21T01:49:52.566Z,11.80
2019-05-21T01:52:23.421Z,11.80
2019-05-21T01:54:52.457Z,11.80
2019-05-21T01:57:21.814Z,11.90
2019-05-21T01:59:52.069Z,11.80
2019-05-21T02:02:21.993Z,11.80
2019-05-21T02:04:51.593Z,11.80
2019-05-21T02:07:20.562Z,11.80
2019-05-21T02:09:59.201Z,11.80
2019-05-21T02:12:29.326Z,11.80
2019-05-21T02:14:59.547Z,11.80
2019-05-21T02:17:28.754Z,11.80
2019-05-21T02:19:58.185Z,11.80
2019-05-21T02:22:27.076Z,11.80
2019-05-21T02:24:56.553Z,11.80
2019-05-21T02:27:25.392Z,11.80
2019-05-21T02:29:57.873Z,11.80
2019-05-21T02:32:27.174Z,11.80
2019-05-21T02:34:57.990Z,11.80
2019-05-21T02:37:27.039Z,11.70
2019-05-21T02:39:55.961Z,11.80
2019-05-21T02:42:25.402Z,11.70
2019-05-21T02:44:57.565Z,11.80
2019-05-21T02:47:26.707Z,11.80
2019-05-21T02:49:55.975Z,11.80
2019-05-21T02:52:25.493Z,11.80
2019-05-21T02:54:54.538Z,11.70
2019-05-21T02:57:26.442Z,11.70
2019-05-21T02:59:57.999Z,11.70
2019-05-21T03:02:34.611Z,11.80
2019-05-21T03:05:07.487Z,11.70
2019-05-21T03:07:41.106Z,11.70
2019-05-21T03:10:16.322Z,11.60
2019-05-21T03:12:49.195Z,11.60
2019-05-21T03:15:19.122Z,11.60
2019-05-21T03:17:51.431Z,11.60
2019-05-21T03:20:33.012Z,11.50
2019-05-21T03:23:06.807Z,11.50
2019-05-21T03:25:36.384Z,11.60
2019-05-21T03:28:06.221Z,11.50
2019-05-21T03:30:35.312Z,11.50
2019-05-21T03:33:07.561Z,11.50
2019-05-21T03:35:39.081Z,11.50
2019-05-21T03:38:17.699Z,11.50
2019-05-21T03:40:50.778Z,11.50
2019-05-21T03:43:21.433Z,11.40
2019-05-21T03:46:04.029Z,11.30
2019-05-21T03:48:37.254Z,11.30
2019-05-21T03:51:09.633Z,11.30
2019-05-21T03:53:45.198Z,11.30
2019-05-21T03:56:15.407Z,11.20
2019-05-21T03:58:51.521Z,11.20
2019-05-21T04:01:33.575Z,11.20
2019-05-21T04:04:13.525Z,11.20
2019-05-21T04:06:50.553Z,11.10
2019-05-21T04:09:09.872Z,11.10
2019-05-21T04:11:39.513Z,11.10
2019-05-21T04:14:39.094Z,11.00
2019-05-21T04:17:34.413Z,11.00
2019-05-21T04:20:11.480Z,11.00
2019-05-21T04:22:54.527Z,11.00
2019-05-21T04:25:30.390Z,11.00
2019-05-21T04:28:06.647Z,11.00
2019-05-21T04:30:35.604Z,11.00
2019-05-21T04:33:20.306Z,11.00
2019-05-21T04:35:41.213Z,11.00
2019-05-21T04:38:13.262Z,11.00
2019-05-21T04:40:42.528Z,11.00
2019-05-21T04:43:13.908Z,11.00
2019-05-21T04:45:42.584Z,11.00
2019-05-21T04:48:11.855Z,11.00
2019-05-21T04:50:44.452Z,11.00
2019-05-21T04:53:13.537Z,10.90
2019-05-21T04:55:55.477Z,10.90
2019-05-21T04:58:29.672Z,10.90
2019-05-21T05:01:01.600Z,10.90
2019-05-21T05:03:51.440Z,10.90
2019-05-21T05:06:24.246Z,10.90
2019-05-21T05:08:56.227Z,10.90
2019-05-21T05:11:25.885Z,10.90
2019-05-21T05:13:59.873Z,10.90
2019-05-21T05:16:28.941Z,10.90
2019-05-21T05:19:03.011Z,10.90
2019-05-21T05:21:42.017Z,10.90
2019-05-21T05:24:17.703Z,10.90
2019-05-21T05:26:49.850Z,10.90
2019-05-21T05:29:19.375Z,11.00
2019-05-21T05:31:49.886Z,11.00
2019-05-21T05:34:19.190Z,11.00
2019-05-21T05:36:51.364Z,11.10
2019-05-21T05:39:22.994Z,11.10
2019-05-21T05:42:04.831Z,11.00
2019-05-21T05:44:36.663Z,11.00
2019-05-21T05:47:05.697Z,11.10
2019-05-21T05:49:42.641Z,11.10
2019-05-21T05:52:38.845Z,11.10
2019-05-21T05:55:11.641Z,11.10
2019-05-21T06:01:11.113Z,11.20
2019-05-21T06:03:58.469Z,11.20
2019-05-21T06:06:41.432Z,11.20
2019-05-21T06:09:47.338Z,11.20
2019-05-21T06:12:20.299Z,11.20
2019-05-21T06:14:52.880Z,11.20
2019-05-21T06:18:04.487Z,11.20
2019-05-21T06:28:01.659Z,11.20
2019-05-21T06:34:50.604Z,11.20
2019-05-21T06:38:16.538Z,11.20
2019-05-21T06:40:44.615Z,11.30
2019-05-21T06:47:32.931Z,11.30
2019-05-21T06:53:28.141Z,11.40
2019-05-21T06:56:17.282Z,11.40
2019-05-21T06:58:48.814Z,11.30
2019-05-21T07:01:34.958Z,11.20
2019-05-21T07:04:04.723Z,11.20
2019-05-21T07:06:34.435Z,11.20
2019-05-21T07:09:09.708Z,11.20
2019-05-21T07:11:38.747Z,11.30
2019-05-21T07:14:11.881Z,11.30
2019-05-21T07:16:44.029Z,11.40
2019-05-21T07:19:13.807Z,11.40
2019-05-21T07:21:46.281Z,11.40
2019-05-21T07:24:15.904Z,11.50
2019-05-21T07:26:44.913Z,11.50
2019-05-21T07:29:14.453Z,11.50
2019-05-21T07:31:43.818Z,11.50
2019-05-21T07:34:25.345Z,11.60
2019-05-21T07:36:54.614Z,11.50
2019-05-21T07:39:24.294Z,11.60
2019-05-21T07:41:53.654Z,11.60
2019-05-21T07:47:46.170Z,11.50
2019-05-21T07:50:15.382Z,11.60
2019-05-21T07:52:47.364Z,11.60
2019-05-21T07:55:16.488Z,11.60
2019-05-21T07:57:45.505Z,11.60
2019-05-21T08:00:16.313Z,11.60
2019-05-21T08:02:51.569Z,11.50
2019-05-21T08:05:25.216Z,11.40
2019-05-21T08:07:54.319Z,11.40
2019-05-21T08:10:25.201Z,11.30
2019-05-21T08:12:57.708Z,11.30
2019-05-21T08:15:26.956Z,11.30
2019-05-21T08:17:57.631Z,11.30
2019-05-21T08:20:27.577Z,11.20
2019-05-21T08:22:56.848Z,11.20
2019-05-21T08:25:35.058Z,11.30
2019-05-21T08:28:05.905Z,11.20
2019-05-21T08:30:37.587Z,11.20
2019-05-21T08:33:08.931Z,11.20
2019-05-21T08:35:42.948Z,11.30
2019-05-21T08:38:15.388Z,11.30
2019-05-21T08:40:46.058Z,11.40
2019-05-21T08:43:22.063Z,11.50
2019-05-21T08:45:50.789Z,11.60
2019-05-21T08:48:22.912Z,11.70
2019-05-21T08:53:53.881Z,11.80
2019-05-21T08:56:24.691Z,11.80
2019-05-21T08:58:54.410Z,11.80
2019-05-21T09:01:27.425Z,11.90
2019-05-21T09:04:06.231Z,12.00
2019-05-21T09:06:37.811Z,12.00
2019-05-21T09:09:47.886Z,12.10
2019-05-21T09:12:07.295Z,12.20
2019-05-21T09:14:37.038Z,12.30
2019-05-21T09:17:11.651Z,12.30
2019-05-21T09:19:40.929Z,12.30
2019-05-21T09:22:19.839Z,12.50
2019-05-21T09:24:51.022Z,12.40
2019-05-21T09:27:26.215Z,12.40
2019-05-21T09:30:00.119Z,12.50
2019-05-21T09:32:34.670Z,12.60
2019-05-21T09:35:33.035Z,12.40
2019-05-21T09:38:32.430Z,12.40
2019-05-21T09:40:57.264Z,12.40
2019-05-21T09:43:55.811Z,12.40
2019-05-21T09:50:39.876Z,12.40
2019-05-21T09:53:09.688Z,12.50
2019-05-21T09:56:19.314Z,12.60
2019-05-21T09:59:11.482Z,12.70
2019-05-21T10:01:53.257Z,12.70
2019-05-21T10:04:29.574Z,12.70
2019-05-21T10:07:13.490Z,12.70
2019-05-21T10:09:47.006Z,12.80
2019-05-21T10:12:17.034Z,12.80
2019-05-21T10:14:52.103Z,12.80
2019-05-21T10:17:17.773Z,12.90
2019-05-21T10:19:46.905Z,12.90
2019-05-21T10:22:28.556Z,13.00
2019-05-21T10:25:02.605Z,13.10
2019-05-21T10:27:32.110Z,13.10
2019-05-21T10:30:08.563Z,13.00
2019-05-21T10:32:37.682Z,13.00
2019-05-21T10:35:07.376Z,13.10
2019-05-21T10:37:53.963Z,13.00
2019-05-21T10:40:35.596Z,13.00
2019-05-21T10:43:07.611Z,13.00
2019-05-21T10:46:03.055Z,13.00
2019-05-21T10:50:10.100Z,13.00
2019-05-21T10:52:33.098Z,13.00
2019-05-21T10:55:22.931Z,12.90
2019-05-21T10:57:58.070Z,12.80
2019-05-21T11:00:30.791Z,12.60
2019-05-21T11:03:16.356Z,12.50
2019-05-21T11:05:48.368Z,12.50
2019-05-21T11:08:25.534Z,12.40
2019-05-21T11:10:52.877Z,12.40
2019-05-21T11:13:42.314Z,12.40
2019-05-21T11:16:20.756Z,12.40
2019-05-21T11:19:22.833Z,12.40
2019-05-21T11:22:08.829Z,12.40
2019-05-21T11:24:54.355Z,12.40
2019-05-21T11:27:27.167Z,12.50
2019-05-21T11:30:25.539Z,12.50
2019-05-21T11:33:00.837Z,12.50
2019-05-21T11:35:57.059Z,12.60
2019-05-21T11:39:07.627Z,12.70
2019-05-21T11:41:40.464Z,12.60
2019-05-21T11:44:38.629Z,12.70
2019-05-21T11:47:08.609Z,12.80
2019-05-21T11:50:09.915Z,12.80
2019-05-21T11:52:39.343Z,12.80
2019-05-21T11:55:08.995Z,12.90
2019-05-21T11:57:46.509Z,12.90
2019-05-21T12:00:21.699Z,13.00
2019-05-21T12:03:04.867Z,13.10
2019-05-21T12:05:41.326Z,13.10
2019-05-21T12:08:13.430Z,13.10
2019-05-21T12:10:48.702Z,13.00
2019-05-21T12:13:20.720Z,12.90
2019-05-21T12:16:25.322Z,12.80
2019-05-21T12:18:57.845Z,12.70
2019-05-21T12:21:46.995Z,12.60
2019-05-21T12:24:17.721Z,12.50
2019-05-21T12:27:06.839Z,12.50
2019-05-21T12:29:46.715Z,12.40
2019-05-21T12:32:21.108Z,12.30
2019-05-21T12:35:36.535Z,12.20
2019-05-21T12:38:23.985Z,12.20
2019-05-21T12:41:00.671Z,12.10
2019-05-21T12:44:14.226Z,12.20
2019-05-21T12:47:01.375Z,12.10
2019-05-21T12:49:33.858Z,12.10
2019-05-21T12:52:04.400Z,12.10
2019-05-21T12:54:48.736Z,12.00
2019-05-21T12:57:37.134Z,12.00
2019-05-21T13:00:13.641Z,11.90
2019-05-21T13:03:14.575Z,11.90
2019-05-21T13:05:46.595Z,12.00
2019-05-21T13:08:15.916Z,12.10
2019-05-21T13:10:54.243Z,12.10
2019-05-21T13:14:18.658Z,12.20
2019-05-21T13:16:52.720Z,12.30
2019-05-21T13:19:17.691Z,12.30
2019-05-21T13:21:47.043Z,12.20
2019-05-21T13:24:20.246Z,12.30
2019-05-21T13:26:50.412Z,12.10
2019-05-21T13:29:22.503Z,12.10
2019-05-21T13:31:52.011Z,12.00
2019-05-21T13:34:26.884Z,11.90
2019-05-21T13:41:06.790Z,11.90
2019-05-21T13:44:21.554Z,11.90
2019-05-21T13:46:52.923Z,11.80
2019-05-21T13:49:26.055Z,11.80
2019-05-21T13:52:02.301Z,11.80
2019-05-21T13:54:34.120Z,11.80
2019-05-21T13:57:06.243Z,11.80
2019-05-21T13:59:45.388Z,11.80
2019-05-21T14:03:06.677Z,11.70
2019-05-21T14:05:48.517Z,11.70
2019-05-21T14:08:19.148Z,11.60
2019-05-21T14:10:52.431Z,11.50
2019-05-21T14:17:38.812Z,11.40
2019-05-21T14:20:31.793Z,11.40
2019-05-21T14:23:16.931Z,11.40
2019-05-21T14:25:46.647Z,11.40
2019-05-21T14:28:16.196Z,11.40
2019-05-21T14:30:48.662Z,11.40
2019-05-21T14:33:18.674Z,11.40
2019-05-21T14:35:49.273Z,11.40
2019-05-21T14:38:31.183Z,11.40
2019-05-21T14:40:56.437Z,11.50
2019-05-21T14:43:31.053Z,11.40
2019-05-21T14:46:00.858Z,11.50
2019-05-21T14:48:30.186Z,11.50
2019-05-21T14:51:02.851Z,11.60
2019-05-21T14:53:38.312Z,11.60
2019-05-21T14:56:10.774Z,11.60
2019-05-21T14:58:44.609Z,11.60
2019-05-21T15:01:13.932Z,11.60
2019-05-21T15:03:50.582Z,11.60
2019-05-21T15:06:47.960Z,11.60
2019-05-21T15:09:23.535Z,11.70
2019-05-21T15:11:53.811Z,11.60
2019-05-21T15:14:23.167Z,11.60
2019-05-21T15:17:06.804Z,11.70
2019-05-21T15:19:35.910Z,11.60
2019-05-21T15:22:24.646Z,11.60
2019-05-21T15:24:55.000Z,11.50
2019-05-21T15:27:24.560Z,11.50
2019-05-21T15:30:18.601Z,11.50
2019-05-21T15:32:49.202Z,11.50
2019-05-21T15:35:19.204Z,11.50
2019-05-21T15:37:48.265Z,11.50
2019-05-21T15:40:25.397Z,11.50
2019-05-21T15:43:00.382Z,11.50
2019-05-21T15:45:37.554Z,11.50
2019-05-21T15:48:13.795Z,11.50
2019-05-21T15:50:42.948Z,11.50
2019-05-21T15:53:15.272Z,11.50
2019-05-21T15:55:46.774Z,11.40
2019-05-21T15:58:19.429Z,11.50
2019-05-21T16:00:48.561Z,11.50
2019-05-21T16:03:19.121Z,11.50
2019-05-21T16:05:51.028Z,11.40
2019-05-21T16:08:20.485Z,11.50
2019-05-21T16:10:52.625Z,11.40
2019-05-21T16:13:28.310Z,11.50
2019-05-21T16:15:57.718Z,11.50
2019-05-21T16:18:28.652Z,11.50
2019-05-21T16:20:58.214Z,11.50
2019-05-21T16:23:27.414Z,11.50
2019-05-21T16:26:06.514Z,11.50
2019-05-21T16:28:35.988Z,11.60
2019-05-21T16:31:10.788Z,11.50
2019-05-21T16:34:08.436Z,11.50
2019-05-21T16:36:47.143Z,11.50
2019-05-21T16:39:17.214Z,11.50
2019-05-21T16:41:47.116Z,11.50
2019-05-21T16:44:41.185Z,11.60
2019-05-21T16:47:42.432Z,11.50
2019-05-21T16:50:08.355Z,11.60
2019-05-21T16:53:04.955Z,11.60
2019-05-21T16:55:37.373Z,11.60
2019-05-21T16:58:06.754Z,11.60
2019-05-21T17:05:19.637Z,11.60
2019-05-21T17:07:42.417Z,11.60
2019-05-21T17:10:41.705Z,11.50
2019-05-21T17:13:29.158Z,11.50
2019-05-21T17:16:15.517Z,11.50
2019-05-21T17:19:14.119Z,11.50
2019-05-21T17:21:56.445Z,11.50
2019-05-21T17:24:30.583Z,11.50
2019-05-21T17:43:52.342Z,11.40
2019-05-21T17:47:11.333Z,11.40
2019-05-21T17:49:51.591Z,11.40
2019-05-21T17:52:51.125Z,11.40
2019-05-21T18:01:53.932Z,11.40
2019-05-21T18:04:26.069Z,11.40
2019-05-21T18:07:05.209Z,11.30
2019-05-21T18:09:35.773Z,11.30
2019-05-21T18:12:08.932Z,11.40
2019-05-21T18:14:38.674Z,11.40
2019-05-21T18:17:11.994Z,11.40
2019-05-21T18:19:41.301Z,11.40
2019-05-21T18:22:11.614Z,11.40
2019-05-21T18:24:40.713Z,11.40
2019-05-21T18:27:09.942Z,11.40
2019-05-21T18:29:39.205Z,11.40
2019-05-21T18:32:08.750Z,11.40
2019-05-21T18:34:38.002Z,11.40
2019-05-21T18:37:13.347Z,11.40
2019-05-21T18:39:47.279Z,11.40
2019-05-21T18:42:22.009Z,11.40
2019-05-21T18:44:49.218Z,11.40
2019-05-21T18:53:55.238Z,11.40
2019-05-21T18:56:25.160Z,11.40
2019-05-21T18:58:54.961Z,11.40
2019-05-21T19:10:45.256Z,11.40
2019-05-21T19:15:49.838Z,11.30
2019-05-21T19:18:19.324Z,11.30
2019-05-21T19:20:50.109Z,11.30
2019-05-21T19:34:48.911Z,11.40
2019-05-21T19:36:50.022Z,11.30
2019-05-21T19:40:04.867Z,11.40
2019-05-21T19:42:07.446Z,11.40
2019-05-21T19:44:46.070Z,11.30
2019-05-21T19:47:54.932Z,11.40
2019-05-21T19:50:45.633Z,11.40
2019-05-21T20:03:07.567Z,11.40
2019-05-21T20:15:30.670Z,11.40
2019-05-21T20:18:20.664Z,11.40
2019-05-21T20:20:48.079Z,11.40
2019-05-21T20:23:49.657Z,11.40
2019-05-21T20:26:21.264Z,11.40
2019-05-21T20:28:52.475Z,11.50
2019-05-21T20:32:09.668Z,11.50
2019-05-21T20:34:50.493Z,11.50
2019-05-21T20:37:33.460Z,11.50
2019-05-21T20:43:30.103Z,11.50
2019-05-21T20:52:45.942Z,11.50
2019-05-21T20:55:35.039Z,11.50
2019-05-21T20:58:42.549Z,11.50
2019-05-21T21:01:30.748Z,11.50
2019-05-21T21:04:31.308Z,11.50
2019-05-21T21:07:03.701Z,11.50
2019-05-21T21:09:33.541Z,11.50
2019-05-21T21:12:08.275Z,11.50
2019-05-21T21:14:38.602Z,11.50
2019-05-21T21:17:17.445Z,11.50
2019-05-21T21:19:46.712Z,11.50
2019-05-21T21:22:17.412Z,11.50
2019-05-21T21:24:47.653Z,11.50
2019-05-21T21:27:17.915Z,11.50
2019-05-21T21:29:47.094Z,11.50
2019-05-21T21:32:19.601Z,11.50
2019-05-21T21:34:52.366Z,11.50
2019-05-21T21:37:23.752Z,11.50
2019-05-21T21:39:53.349Z,11.40
2019-05-21T21:42:22.698Z,11.40
2019-05-21T21:44:52.182Z,11.50
2019-05-21T21:47:27.533Z,11.50
2019-05-21T21:49:58.343Z,11.40
2019-05-21T21:52:27.985Z,11.50
2019-05-21T21:54:56.909Z,11.40
2019-05-21T21:57:26.085Z,11.50
2019-05-21T21:59:56.093Z,11.40
2019-05-21T22:02:31.123Z,11.40
2019-05-21T22:05:01.605Z,11.50
2019-05-21T22:07:31.456Z,11.50
2019-05-21T22:10:01.834Z,11.50
2019-05-21T22:12:34.204Z,11.50
2019-05-21T22:15:03.459Z,11.50
2019-05-21T22:17:35.778Z,11.50
2019-05-21T22:20:08.822Z,11.50
2019-05-21T22:22:41.093Z,11.50
2019-05-21T22:25:11.236Z,11.50
2019-05-21T22:27:41.672Z,11.50
2019-05-21T22:30:11.311Z,11.50
2019-05-21T22:32:45.796Z,11.40
2019-05-21T22:35:14.933Z,11.40
2019-05-21T22:37:47.151Z,11.40
2019-05-21T22:40:17.518Z,11.40
2019-05-21T22:42:46.800Z,11.40
2019-05-21T22:45:16.106Z,11.40
2019-05-21T22:47:51.554Z,11.40
2019-05-21T22:50:36.341Z,11.50
2019-05-21T22:53:12.381Z,11.50
2019-05-21T22:55:41.774Z,11.40
2019-05-21T22:58:14.239Z,11.40
2019-05-21T23:00:43.303Z,11.40
2019-05-21T23:03:15.499Z,11.40
2019-05-21T23:05:45.254Z,11.30
2019-05-21T23:08:17.258Z,11.40
2019-05-21T23:10:49.270Z,11.40
2019-05-21T23:13:19.641Z,11.40
2019-05-21T23:15:53.190Z,11.30
2019-05-21T23:18:22.702Z,11.30
2019-05-21T23:20:57.263Z,11.30
2019-05-21T23:23:27.362Z,11.30
2019-05-21T23:26:27.426Z,11.30
2019-05-21T23:28:56.970Z,11.30
2019-05-21T23:31:29.117Z,11.30
2019-05-21T23:34:02.351Z,11.30
2019-05-21T23:36:31.667Z,11.30
2019-05-21T23:39:04.498Z,11.30
2019-05-21T23:41:33.837Z,11.30
2019-05-21T23:44:06.787Z,11.30
2019-05-21T23:46:40.526Z,11.30
2019-05-21T23:49:09.883Z,11.30
2019-05-21T23:51:41.517Z,11.30
2019-05-21T23:54:10.856Z,11.30
2019-05-21T23:56:44.083Z,11.30
2019-05-21T23:59:13.500Z,11.30
